createdAt,value
2022-11-30T00:01:32.389Z,8.64
2022-11-30T00:04:00.753Z,8.54
2022-11-30T00:06:30.531Z,8.77
2022-11-30T00:08:59.702Z,8.89
2022-11-30T00:11:29.933Z,8.56
2022-11-30T00:13:58.165Z,8.97
2022-11-30T00:16:27.568Z,9.28
2022-11-30T00:18:55.974Z,9.49
2022-11-30T00:21:24.192Z,9.54
2022-11-30T00:23:53.744Z,9.09
2022-11-30T00:26:23.038Z,8.17
2022-11-30T00:28:51.531Z,9.06
2022-11-30T00:31:20.391Z,9.12
2022-11-30T00:33:48.749Z,9.33
2022-11-30T00:36:18.722Z,9.45
2022-11-30T00:38:47.557Z,9.73
2022-11-30T00:41:18.044Z,9.78
2022-11-30T00:43:46.817Z,9.57
2022-11-30T00:46:15.554Z,9.07
2022-11-30T00:48:43.813Z,9.33
2022-11-30T00:51:13.680Z,9.61
2022-11-30T00:53:43.159Z,9.29
2022-11-30T00:56:11.874Z,9.36
2022-11-30T00:58:42.102Z,9.38
2022-11-30T01:01:10.748Z,9.45
2022-11-30T01:03:39.248Z,9.59
2022-11-30T01:06:09.387Z,9.47
2022-11-30T01:08:38.115Z,9.29
2022-11-30T01:11:09.828Z,9.29
2022-11-30T01:13:38.115Z,8.46
2022-11-30T01:16:13.207Z,8.43
2022-11-30T01:18:41.528Z,8.86
2022-11-30T01:21:11.866Z,9.23
2022-11-30T01:23:40.457Z,8.65
2022-11-30T01:26:09.059Z,9.56
2022-11-30T01:28:37.791Z,9.41
2022-11-30T01:31:08.552Z,9.35
2022-11-30T01:33:38.243Z,9.00
2022-11-30T01:36:09.074Z,8.81
2022-11-30T01:38:38.799Z,8.27
2022-11-30T01:41:08.435Z,8.46
2022-11-30T01:43:42.577Z,8.39
2022-11-30T01:46:35.686Z,8.64
2022-11-30T01:49:16.136Z,8.41
2022-11-30T01:51:47.658Z,8.49
2022-11-30T01:54:17.812Z,8.69
2022-11-30T01:56:50.376Z,8.56
2022-11-30T01:59:22.059Z,9.00
2022-11-30T02:01:50.418Z,8.81
2022-11-30T02:04:24.069Z,9.22
2022-11-30T02:06:52.439Z,9.57
2022-11-30T02:09:22.777Z,9.57
2022-11-30T02:11:51.925Z,9.31
2022-11-30T02:14:31.027Z,9.04
2022-11-30T02:17:09.831Z,9.41
2022-11-30T02:20:10.442Z,9.36
2022-11-30T02:22:52.078Z,9.53
2022-11-30T02:25:27.886Z,9.21
2022-11-30T02:28:14.350Z,9.06
2022-11-30T02:30:48.024Z,9.36
2022-11-30T02:33:19.940Z,9.45
2022-11-30T02:35:55.145Z,9.62
2022-11-30T02:38:25.520Z,9.46
2022-11-30T02:40:53.920Z,9.34
2022-11-30T02:43:25.659Z,9.40
2022-11-30T02:46:07.424Z,9.18
2022-11-30T02:48:44.695Z,9.43
2022-11-30T02:51:19.043Z,9.08
2022-11-30T02:53:48.317Z,9.48
2022-11-30T02:56:16.813Z,9.41
2022-11-30T02:58:45.153Z,9.64
2022-11-30T03:01:15.312Z,9.61
2022-11-30T03:03:45.023Z,9.74
2022-11-30T03:06:13.329Z,9.76
2022-11-30T03:08:41.615Z,9.87
2022-11-30T03:11:09.891Z,9.91
2022-11-30T03:13:38.159Z,9.99
2022-11-30T03:16:09.837Z,9.95
2022-11-30T03:18:40.227Z,9.99
2022-11-30T03:21:09.288Z,9.85
2022-11-30T03:23:38.047Z,9.88
2022-11-30T03:26:08.147Z,9.80
2022-11-30T03:28:36.727Z,9.72
2022-11-30T03:31:05.741Z,9.81
2022-11-30T03:33:34.070Z,9.76
2022-11-30T03:36:05.468Z,9.30
2022-11-30T03:38:34.816Z,9.47
2022-11-30T03:41:03.866Z,9.67
2022-11-30T03:43:32.424Z,9.62
2022-11-30T03:46:01.116Z,9.72
2022-11-30T03:48:30.776Z,9.82
2022-11-30T03:50:59.281Z,9.95
2022-11-30T03:53:28.893Z,10.02
2022-11-30T03:55:58.870Z,10.04
2022-11-30T03:58:27.780Z,10.13
2022-11-30T04:01:02.735Z,10.07
2022-11-30T04:03:31.355Z,9.97
2022-11-30T04:05:59.748Z,9.95
2022-11-30T04:08:29.747Z,9.88
2022-11-30T04:11:00.408Z,9.33
2022-11-30T04:13:30.253Z,9.66
2022-11-30T04:15:59.050Z,9.83
2022-11-30T04:18:29.534Z,9.73
2022-11-30T04:20:59.140Z,9.87
2022-11-30T04:23:32.368Z,9.98
2022-11-30T04:26:00.935Z,10.05
2022-11-30T04:28:29.176Z,9.54
2022-11-30T04:30:57.548Z,9.90
2022-11-30T04:33:25.804Z,9.96
2022-11-30T04:35:57.911Z,9.39
2022-11-30T04:38:28.642Z,8.99
2022-11-30T04:40:57.438Z,9.31
2022-11-30T04:43:26.621Z,9.08
2022-11-30T04:45:54.934Z,8.74
2022-11-30T04:48:23.118Z,8.78
2022-11-30T04:50:51.410Z,8.27
2022-11-30T04:53:19.629Z,8.28
2022-11-30T04:55:49.287Z,9.02
2022-11-30T04:58:17.491Z,9.16
2022-11-30T05:00:45.767Z,9.08
2022-11-30T05:03:14.049Z,9.14
2022-11-30T05:05:42.353Z,9.01
2022-11-30T05:08:10.818Z,9.43
2022-11-30T05:10:39.213Z,9.60
2022-11-30T05:13:08.885Z,9.38
2022-11-30T05:15:37.151Z,9.38
2022-11-30T05:18:06.816Z,9.37
2022-11-30T05:20:35.038Z,9.33
2022-11-30T05:23:03.263Z,9.42
2022-11-30T05:25:31.474Z,9.50
2022-11-30T05:27:59.726Z,9.43
2022-11-30T05:30:29.389Z,8.90
2022-11-30T05:32:57.704Z,9.13
2022-11-30T05:35:26.316Z,9.31
2022-11-30T05:37:54.512Z,9.31
2022-11-30T05:40:22.730Z,9.42
2022-11-30T05:42:56.803Z,9.44
2022-11-30T05:45:25.084Z,9.55
2022-11-30T05:47:54.741Z,9.13
2022-11-30T05:50:23.284Z,9.30
2022-11-30T05:52:54.022Z,9.52
2022-11-30T05:55:22.235Z,9.61
2022-11-30T05:57:50.513Z,9.89
2022-11-30T06:00:19.705Z,9.91
2022-11-30T06:02:48.498Z,9.21
2022-11-30T06:05:18.285Z,9.15
2022-11-30T06:07:46.726Z,9.17
2022-11-30T06:10:15.098Z,9.36
2022-11-30T06:12:43.369Z,9.31
2022-11-30T06:15:12.380Z,9.54
2022-11-30T06:17:40.575Z,9.64
2022-11-30T06:20:09.919Z,9.75
2022-11-30T06:22:39.545Z,9.83
2022-11-30T06:25:08.470Z,9.94
2022-11-30T06:27:36.631Z,9.99
2022-11-30T06:30:05.513Z,9.96
2022-11-30T06:32:33.746Z,9.83
2022-11-30T06:35:02.013Z,9.87
2022-11-30T06:37:30.632Z,9.90
2022-11-30T06:40:08.244Z,10.02
2022-11-30T06:42:37.355Z,9.91
2022-11-30T06:45:07.050Z,10.04
2022-11-30T06:47:35.420Z,10.00
2022-11-30T06:50:03.733Z,10.07
2022-11-30T06:52:32.342Z,10.10
2022-11-30T06:55:02.182Z,10.18
2022-11-30T06:57:31.156Z,9.98
2022-11-30T06:59:59.667Z,9.67
2022-11-30T07:02:27.876Z,9.75
2022-11-30T07:04:56.067Z,9.72
2022-11-30T07:07:24.568Z,9.51
2022-11-30T07:09:52.851Z,9.47
2022-11-30T07:12:22.566Z,9.69
2022-11-30T07:14:54.028Z,9.84
2022-11-30T07:17:22.387Z,9.88
2022-11-30T07:19:50.800Z,10.13
2022-11-30T07:22:19.017Z,10.49
2022-11-30T07:25:04.795Z,10.19
2022-11-30T07:27:34.350Z,9.94
2022-11-30T07:30:02.682Z,9.67
2022-11-30T07:32:30.920Z,9.55
2022-11-30T07:34:59.143Z,9.30
2022-11-30T07:37:27.503Z,9.41
2022-11-30T07:39:55.970Z,9.59
2022-11-30T07:42:24.337Z,10.07
2022-11-30T07:44:58.323Z,10.15
2022-11-30T07:47:27.138Z,9.98
2022-11-30T07:49:55.372Z,9.75
2022-11-30T07:52:23.602Z,9.83
2022-11-30T07:54:51.875Z,10.06
2022-11-30T07:57:20.108Z,9.87
2022-11-30T07:59:49.002Z,9.58
2022-11-30T08:02:18.951Z,8.94
2022-11-30T08:04:47.581Z,9.06
2022-11-30T08:07:16.155Z,9.41
2022-11-30T08:09:45.201Z,9.91
2022-11-30T08:12:13.657Z,10.20
2022-11-30T08:15:17.613Z,10.37
2022-11-30T08:17:31.654Z,10.43
2022-11-30T08:19:59.909Z,10.56
2022-11-30T08:22:28.171Z,10.71
2022-11-30T08:24:56.538Z,10.38
2022-11-30T08:27:24.729Z,10.34
2022-11-30T08:29:53.331Z,9.96
2022-11-30T08:32:21.602Z,9.69
2022-11-30T08:34:51.273Z,10.05
2022-11-30T08:37:19.447Z,9.62
2022-11-30T08:39:47.753Z,10.05
2022-11-30T08:42:16.049Z,10.17
2022-11-30T08:44:44.379Z,9.74
2022-11-30T08:47:12.691Z,9.52
2022-11-30T08:49:41.240Z,9.72
2022-11-30T08:52:18.805Z,9.86
2022-11-30T08:54:48.945Z,10.06
2022-11-30T08:57:18.971Z,10.30
2022-11-30T08:59:47.440Z,10.23
2022-11-30T09:02:18.782Z,9.88
2022-11-30T09:04:51.319Z,9.79
2022-11-30T09:07:21.281Z,9.62
2022-11-30T09:09:49.669Z,9.75
2022-11-30T09:12:18.035Z,9.81
2022-11-30T09:14:49.712Z,9.96
2022-11-30T09:17:20.836Z,9.74
2022-11-30T09:19:49.056Z,9.70
2022-11-30T09:22:18.438Z,9.59
2022-11-30T09:24:48.221Z,9.81
2022-11-30T09:27:16.554Z,9.77
2022-11-30T09:29:44.809Z,9.52
2022-11-30T09:32:13.142Z,10.26
2022-11-30T09:34:41.341Z,10.17
2022-11-30T09:37:09.557Z,9.91
2022-11-30T09:39:37.769Z,9.74
2022-11-30T09:42:29.834Z,9.19
2022-11-30T09:45:07.896Z,9.06
2022-11-30T09:48:05.688Z,9.34
2022-11-30T09:50:39.628Z,9.71
2022-11-30T09:53:13.034Z,9.98
2022-11-30T09:55:44.020Z,9.94
2022-11-30T09:58:26.316Z,9.82
2022-11-30T10:00:54.543Z,9.76
2022-11-30T10:03:24.739Z,9.78
2022-11-30T10:06:00.703Z,9.37
2022-11-30T10:08:44.824Z,9.71
2022-11-30T10:11:36.016Z,9.62
2022-11-30T10:14:23.245Z,9.32
2022-11-30T10:17:02.567Z,9.26
2022-11-30T10:19:50.770Z,9.42
2022-11-30T10:22:28.341Z,9.27
2022-11-30T10:25:11.920Z,9.02
2022-11-30T10:27:49.687Z,9.34
2022-11-30T10:30:22.618Z,9.22
2022-11-30T10:32:54.217Z,8.88
2022-11-30T10:35:30.332Z,8.83
2022-11-30T10:38:01.515Z,8.46
2022-11-30T10:40:38.244Z,8.77
2022-11-30T10:43:17.006Z,8.87
2022-11-30T10:45:49.410Z,8.73
2022-11-30T10:48:23.297Z,9.46
2022-11-30T10:50:52.853Z,9.54
2022-11-30T10:53:21.653Z,9.52
2022-11-30T10:56:00.602Z,8.50
2022-11-30T10:58:33.006Z,9.04
2022-11-30T11:01:06.980Z,9.00
2022-11-30T11:03:35.507Z,8.77
2022-11-30T11:06:14.584Z,8.87
2022-11-30T11:08:45.602Z,9.14
2022-11-30T11:11:29.993Z,9.43
2022-11-30T11:14:15.304Z,9.36
2022-11-30T11:16:59.201Z,9.49
2022-11-30T11:19:37.517Z,9.50
2022-11-30T11:22:16.175Z,9.30
2022-11-30T11:24:45.176Z,9.34
2022-11-30T11:27:25.613Z,9.46
2022-11-30T11:30:04.042Z,9.54
2022-11-30T11:32:34.103Z,9.63
2022-11-30T11:35:02.443Z,9.42
2022-11-30T11:37:33.880Z,9.01
2022-11-30T11:40:16.955Z,9.20
2022-11-30T11:42:49.060Z,9.28
2022-11-30T11:45:19.931Z,9.50
2022-11-30T11:48:00.278Z,9.25
2022-11-30T11:51:05.016Z,9.12
2022-11-30T11:53:24.828Z,9.20
2022-11-30T11:56:01.255Z,8.88
2022-11-30T11:58:41.971Z,9.16
2022-11-30T12:01:39.083Z,9.23
2022-11-30T12:04:30.731Z,9.04
2022-11-30T12:07:01.397Z,8.97
2022-11-30T12:09:34.085Z,8.97
2022-11-30T12:12:02.820Z,9.15
2022-11-30T12:14:35.383Z,8.91
2022-11-30T12:17:22.163Z,8.95
2022-11-30T12:20:14.348Z,9.02
2022-11-30T12:23:05.164Z,9.27
2022-11-30T12:25:39.404Z,9.07
2022-11-30T12:28:19.730Z,9.00
2022-11-30T12:30:59.166Z,8.89
2022-11-30T12:33:41.425Z,9.16
2022-11-30T12:36:21.028Z,9.03
2022-11-30T12:38:52.046Z,8.91
2022-11-30T12:41:41.186Z,8.86
2022-11-30T12:44:30.255Z,9.44
2022-11-30T12:47:05.644Z,9.65
2022-11-30T12:49:51.853Z,9.68
2022-11-30T12:52:35.668Z,9.90
2022-11-30T12:55:14.576Z,9.35
2022-11-30T12:57:49.795Z,9.43
2022-11-30T13:00:21.615Z,8.92
2022-11-30T13:03:34.106Z,9.25
2022-11-30T13:06:07.147Z,9.03
2022-11-30T13:08:44.144Z,9.14
2022-11-30T13:11:17.848Z,8.74
2022-11-30T13:13:51.277Z,9.13
2022-11-30T13:16:23.679Z,8.57
2022-11-30T13:18:52.893Z,9.23
2022-11-30T13:21:29.298Z,9.24
2022-11-30T13:24:07.180Z,9.02
2022-11-30T13:26:43.088Z,8.98
2022-11-30T13:29:29.141Z,8.98
2022-11-30T13:32:05.641Z,8.76
2022-11-30T13:34:34.078Z,8.79
2022-11-30T13:37:05.850Z,8.84
2022-11-30T13:39:46.920Z,8.78
2022-11-30T13:42:47.350Z,8.85
2022-11-30T13:45:36.713Z,9.14
2022-11-30T13:48:31.817Z,9.20
2022-11-30T13:51:00.528Z,9.51
2022-11-30T13:53:34.031Z,9.30
2022-11-30T13:56:07.242Z,9.24
2022-11-30T13:58:36.331Z,9.06
2022-11-30T14:01:30.100Z,9.09
2022-11-30T14:04:33.244Z,9.07
2022-11-30T14:07:01.757Z,9.08
2022-11-30T14:09:57.859Z,9.14
2022-11-30T14:13:01.539Z,9.19
2022-11-30T14:15:56.268Z,8.92
2022-11-30T14:18:48.615Z,9.27
2022-11-30T14:21:25.347Z,9.34
2022-11-30T14:24:00.300Z,8.92
2022-11-30T14:26:36.782Z,8.77
2022-11-30T14:29:17.871Z,8.95
2022-11-30T14:31:57.918Z,9.25
2022-11-30T14:34:28.478Z,9.32
2022-11-30T14:37:01.104Z,8.76
2022-11-30T14:39:34.892Z,8.92
2022-11-30T14:42:03.895Z,9.12
2022-11-30T14:44:38.102Z,8.95
2022-11-30T14:47:17.575Z,8.68
2022-11-30T14:49:52.232Z,8.37
2022-11-30T14:52:40.289Z,8.59
2022-11-30T14:55:19.271Z,8.68
2022-11-30T14:57:54.838Z,8.59
2022-11-30T15:00:24.797Z,8.97
2022-11-30T15:02:53.106Z,8.56
2022-11-30T15:05:26.960Z,8.66
2022-11-30T15:07:55.631Z,8.66
2022-11-30T15:10:31.534Z,8.47
2022-11-30T15:13:02.213Z,8.62
2022-11-30T15:15:32.822Z,8.38
2022-11-30T15:18:16.392Z,8.42
2022-11-30T15:20:49.083Z,8.61
2022-11-30T15:23:17.964Z,8.71
2022-11-30T15:25:49.182Z,8.78
2022-11-30T15:28:22.326Z,8.75
2022-11-30T15:30:55.971Z,8.61
2022-11-30T15:33:29.381Z,8.46
2022-11-30T15:36:22.842Z,8.63
2022-11-30T15:38:54.345Z,8.65
2022-11-30T15:41:24.948Z,7.98
2022-11-30T15:43:54.980Z,8.38
2022-11-30T15:46:33.844Z,8.44
2022-11-30T15:49:42.609Z,8.41
2022-11-30T15:52:18.575Z,8.59
2022-11-30T15:54:49.244Z,8.42
2022-11-30T15:57:18.311Z,8.28
2022-11-30T16:00:04.088Z,8.58
2022-11-30T16:02:37.117Z,8.86
2022-11-30T16:05:26.261Z,8.77
2022-11-30T16:07:57.478Z,8.68
2022-11-30T16:10:27.618Z,8.45
2022-11-30T16:12:57.209Z,8.64
2022-11-30T16:15:27.989Z,8.72
2022-11-30T16:18:01.238Z,8.28
2022-11-30T16:20:29.483Z,8.56
2022-11-30T16:23:02.496Z,8.39
2022-11-30T16:25:33.904Z,8.61
2022-11-30T16:28:02.923Z,8.50
2022-11-30T16:30:32.209Z,8.69
2022-11-30T16:33:02.099Z,9.08
2022-11-30T16:35:37.855Z,8.71
2022-11-30T16:38:06.713Z,8.65
2022-11-30T16:40:39.135Z,8.64
2022-11-30T16:43:07.885Z,8.69
2022-11-30T16:45:38.078Z,8.77
2022-11-30T16:48:08.798Z,8.69
2022-11-30T16:50:38.362Z,8.61
2022-11-30T16:53:11.641Z,8.54
2022-11-30T16:55:39.981Z,8.47
2022-11-30T16:58:08.281Z,8.46
2022-11-30T17:00:37.339Z,8.65
2022-11-30T17:03:11.165Z,7.33
2022-11-30T17:05:39.481Z,8.56
2022-11-30T17:08:07.920Z,8.63
2022-11-30T17:10:36.450Z,8.45
2022-11-30T17:13:05.140Z,8.79
2022-11-30T17:15:33.516Z,8.65
2022-11-30T17:18:01.820Z,8.84
2022-11-30T17:20:31.488Z,8.79
2022-11-30T17:22:59.721Z,8.70
2022-11-30T17:25:28.035Z,8.60
2022-11-30T17:27:56.405Z,8.53
2022-11-30T17:30:25.109Z,8.43
2022-11-30T17:32:53.433Z,8.66
2022-11-30T17:35:21.779Z,8.34
2022-11-30T17:37:54.149Z,8.52
2022-11-30T17:40:22.513Z,8.61
2022-11-30T17:42:50.881Z,8.20
2022-11-30T17:45:19.188Z,8.61
2022-11-30T17:47:47.468Z,8.45
2022-11-30T17:50:15.946Z,8.52
2022-11-30T17:52:44.283Z,8.50
2022-11-30T17:55:14.024Z,8.49
2022-11-30T17:57:42.378Z,8.71
2022-11-30T18:00:11.890Z,8.29
2022-11-30T18:02:41.009Z,8.56
2022-11-30T18:05:10.189Z,8.53
2022-11-30T18:07:38.437Z,8.74
2022-11-30T18:10:08.128Z,8.58
2022-11-30T18:12:37.893Z,8.21
2022-11-30T18:15:07.390Z,8.59
2022-11-30T18:17:36.144Z,8.53
2022-11-30T18:20:05.059Z,8.45
2022-11-30T18:22:34.020Z,8.64
2022-11-30T18:25:02.606Z,8.74
2022-11-30T18:27:30.843Z,8.28
2022-11-30T18:30:00.569Z,8.56
2022-11-30T18:32:28.916Z,8.78
2022-11-30T18:34:57.321Z,8.76
2022-11-30T18:37:25.625Z,9.05
2022-11-30T18:39:54.034Z,9.28
2022-11-30T18:42:22.807Z,9.01
2022-11-30T18:44:51.232Z,8.82
2022-11-30T18:47:21.136Z,9.01
2022-11-30T18:49:49.513Z,9.02
2022-11-30T18:52:17.859Z,8.71
2022-11-30T18:54:46.858Z,8.84
2022-11-30T18:57:15.557Z,8.01
2022-11-30T18:59:43.874Z,8.87
2022-11-30T19:02:12.516Z,8.68
2022-11-30T19:04:42.203Z,8.56
2022-11-30T19:07:10.716Z,9.05
2022-11-30T19:09:38.976Z,9.18
2022-11-30T19:12:07.527Z,8.87
2022-11-30T19:14:35.875Z,8.89
2022-11-30T19:17:04.234Z,8.55
2022-11-30T19:19:32.584Z,9.36
2022-11-30T19:22:02.269Z,9.18
2022-11-30T19:24:30.620Z,9.00
2022-11-30T19:27:00.753Z,9.03
2022-11-30T19:29:29.629Z,9.35
2022-11-30T19:31:58.107Z,9.22
2022-11-30T19:34:26.528Z,9.05
2022-11-30T19:36:54.880Z,9.25
2022-11-30T19:39:24.993Z,8.94
2022-11-30T19:41:53.275Z,9.08
2022-11-30T19:44:21.514Z,9.12
2022-11-30T19:46:50.262Z,9.17
2022-11-30T19:49:19.073Z,8.30
2022-11-30T19:51:47.439Z,8.87
2022-11-30T19:54:15.873Z,8.82
2022-11-30T19:56:45.590Z,8.82
2022-11-30T19:59:13.967Z,8.77
2022-11-30T20:01:42.343Z,8.89
2022-11-30T20:04:10.725Z,8.96
2022-11-30T20:06:39.610Z,8.91
2022-11-30T20:09:09.571Z,8.86
2022-11-30T20:11:38.873Z,9.04
2022-11-30T20:14:08.585Z,9.00
2022-11-30T20:16:37.521Z,8.73
2022-11-30T20:19:05.744Z,9.13
2022-11-30T20:21:36.186Z,9.29
2022-11-30T20:24:06.804Z,9.08
2022-11-30T20:26:36.891Z,9.07
2022-11-30T20:29:17.289Z,8.62
2022-11-30T20:31:47.400Z,8.63
2022-11-30T20:34:16.050Z,8.73
2022-11-30T20:36:45.389Z,9.05
2022-11-30T20:39:13.784Z,9.24
2022-11-30T20:41:42.482Z,9.18
2022-11-30T20:44:16.241Z,8.87
2022-11-30T20:46:44.608Z,9.00
2022-11-30T20:49:17.698Z,8.40
2022-11-30T20:51:47.177Z,8.53
2022-11-30T20:54:16.219Z,8.67
2022-11-30T20:56:46.110Z,8.94
2022-11-30T20:59:19.906Z,8.25
2022-11-30T21:01:48.631Z,8.91
2022-11-30T21:04:17.010Z,8.96
2022-11-30T21:06:46.511Z,8.87
2022-11-30T21:09:15.602Z,8.73
2022-11-30T21:11:44.107Z,8.95
2022-11-30T21:14:12.657Z,8.98
2022-11-30T21:16:42.356Z,8.69
2022-11-30T21:19:11.878Z,8.77
2022-11-30T21:21:40.192Z,8.57
2022-11-30T21:24:10.311Z,8.78
2022-11-30T21:26:40.642Z,9.13
2022-11-30T21:29:12.735Z,9.00
2022-11-30T21:31:42.819Z,8.79
2022-11-30T21:34:11.354Z,9.03
2022-11-30T21:36:39.933Z,8.98
2022-11-30T21:39:08.858Z,9.08
2022-11-30T21:41:39.387Z,8.75
2022-11-30T21:44:09.002Z,8.62
2022-11-30T21:46:37.391Z,8.73
2022-11-30T21:49:07.382Z,8.75
2022-11-30T21:51:35.654Z,8.78
2022-11-30T21:54:06.784Z,8.62
2022-11-30T21:56:36.517Z,9.00
2022-11-30T21:59:06.276Z,8.82
2022-11-30T22:01:36.596Z,8.39
2022-11-30T22:04:07.830Z,8.61
2022-11-30T22:06:37.803Z,8.77
2022-11-30T22:09:08.962Z,8.80
2022-11-30T22:11:39.141Z,8.89
2022-11-30T22:14:08.132Z,8.96
2022-11-30T22:16:36.836Z,8.83
2022-11-30T22:19:07.533Z,8.73
2022-11-30T22:21:36.754Z,9.03
2022-11-30T22:24:06.953Z,8.83
2022-11-30T22:26:37.296Z,8.77
2022-11-30T22:29:08.247Z,9.26
2022-11-30T22:31:40.858Z,8.53
2022-11-30T22:34:11.400Z,8.78
2022-11-30T22:36:41.341Z,8.85
2022-11-30T22:39:12.730Z,9.05
2022-11-30T22:41:41.825Z,9.20
2022-11-30T22:44:13.198Z,9.02
2022-11-30T22:46:41.692Z,8.83
2022-11-30T22:49:19.908Z,9.04
2022-11-30T22:51:49.548Z,9.05
2022-11-30T22:54:18.516Z,9.10
2022-11-30T22:56:47.140Z,8.93
2022-11-30T22:59:16.111Z,8.62
2022-11-30T23:01:47.047Z,8.87
2022-11-30T23:04:18.731Z,8.50
2022-11-30T23:06:48.994Z,8.54
2022-11-30T23:09:19.881Z,8.61
2022-11-30T23:11:48.752Z,8.65
2022-11-30T23:14:17.242Z,8.96
2022-11-30T23:16:46.096Z,8.84
2022-11-30T23:19:14.974Z,7.65
2022-11-30T23:21:46.046Z,8.30
2022-11-30T23:24:16.624Z,8.50
2022-11-30T23:26:46.167Z,7.92
2022-11-30T23:29:16.738Z,8.32
2022-11-30T23:31:47.026Z,8.61
2022-11-30T23:34:16.898Z,8.40
2022-11-30T23:36:47.120Z,7.71
2022-11-30T23:39:17.829Z,8.51
2022-11-30T23:41:46.262Z,8.18
2022-11-30T23:44:14.588Z,8.48
2022-11-30T23:46:43.034Z,8.50
2022-11-30T23:49:13.534Z,8.48
2022-11-30T23:51:41.742Z,8.39
2022-11-30T23:54:11.463Z,8.55
2022-11-30T23:56:39.794Z,7.99
2022-11-30T23:59:08.041Z,8.18
